createdAt,value
2023-09-13T00:00:09.179Z,5.53
2023-09-13T00:05:15.728Z,5.80
2023-09-13T00:10:22.721Z,5.85
2023-09-13T00:15:26.300Z,7.07
2023-09-13T00:20:29.872Z,6.03
2023-09-13T00:25:34.996Z,5.83
2023-09-13T00:30:38.379Z,6.90
2023-09-13T00:35:41.815Z,5.97
2023-09-13T00:40:46.860Z,5.57
2023-09-13T00:45:51.915Z,5.70
2023-09-13T00:50:55.631Z,5.53
2023-09-13T00:56:00.959Z,5.63
2023-09-13T01:01:04.497Z,6.57
2023-09-13T01:06:10.566Z,6.10
2023-09-13T01:11:15.454Z,5.60
2023-09-13T01:16:24.059Z,6.77
2023-09-13T01:21:49.835Z,6.23
2023-09-13T01:27:04.214Z,6.67
2023-09-13T01:32:09.076Z,6.80
2023-09-13T01:37:12.490Z,6.13
2023-09-13T01:42:16.118Z,7.70
2023-09-13T01:47:22.063Z,6.73
2023-09-13T01:52:25.735Z,7.03
2023-09-13T01:57:29.257Z,6.80
2023-09-13T02:02:34.068Z,7.20
2023-09-13T02:07:37.785Z,6.87
2023-09-13T02:12:41.480Z,6.83
2023-09-13T02:17:46.239Z,6.70
2023-09-13T02:22:49.779Z,6.30
2023-09-13T02:27:53.099Z,6.50
2023-09-13T02:32:58.056Z,6.60
2023-09-13T02:38:01.667Z,5.93
2023-09-13T02:43:05.313Z,6.50
2023-09-13T02:48:10.476Z,6.00
2023-09-13T02:53:13.988Z,6.70
2023-09-13T02:58:17.467Z,7.13
2023-09-13T03:03:23.220Z,6.57
2023-09-13T03:08:26.815Z,5.80
2023-09-13T03:13:30.250Z,5.83
2023-09-13T03:18:36.394Z,4.80
2023-09-13T03:23:42.443Z,5.63
2023-09-13T03:28:47.064Z,4.70
2023-09-13T03:33:53.457Z,5.80
2023-09-13T03:38:57.136Z,5.63
2023-09-13T03:44:01.786Z,5.10
2023-09-13T03:49:07.228Z,4.40
2023-09-13T03:54:10.892Z,4.20
2023-09-13T03:59:14.477Z,4.07
2023-09-13T04:04:19.785Z,4.17
2023-09-13T04:09:23.809Z,3.70
2023-09-13T04:14:29.770Z,4.07
2023-09-13T04:19:34.858Z,4.07
2023-09-13T04:24:38.621Z,4.40
2023-09-13T04:29:44.327Z,4.13
2023-09-13T04:34:49.365Z,4.57
2023-09-13T04:39:52.975Z,4.90
2023-09-13T04:44:56.972Z,4.70
2023-09-13T04:50:02.107Z,4.87
2023-09-13T04:55:06.735Z,5.33
2023-09-13T05:00:12.648Z,5.13
2023-09-13T05:05:18.158Z,4.77
2023-09-13T05:10:21.653Z,4.67
2023-09-13T05:15:25.775Z,5.07
2023-09-13T05:20:30.626Z,5.20
2023-09-13T05:25:34.603Z,5.77
2023-09-13T05:30:37.950Z,5.70
2023-09-13T05:35:42.671Z,5.07
2023-09-13T05:40:46.119Z,5.00
2023-09-13T05:45:49.578Z,5.47
2023-09-13T05:50:54.305Z,5.60
2023-09-13T05:55:57.619Z,5.50
2023-09-13T06:01:01.467Z,5.40
2023-09-13T06:06:06.408Z,5.43
2023-09-13T06:11:09.920Z,4.30
2023-09-13T06:16:13.515Z,4.87
2023-09-13T06:21:18.409Z,4.80
2023-09-13T06:26:24.940Z,4.73
2023-09-13T06:31:33.878Z,4.27
2023-09-13T06:36:39.681Z,4.77
2023-09-13T06:41:43.394Z,3.70
2023-09-13T06:46:51.580Z,3.90
2023-09-13T06:52:03.389Z,4.23
2023-09-13T06:57:12.446Z,4.40
2023-09-13T07:02:30.975Z,3.63
2023-09-13T07:07:37.350Z,4.50
2023-09-13T07:12:40.731Z,4.47
2023-09-13T07:17:44.227Z,4.50
2023-09-13T07:22:49.088Z,4.27
2023-09-13T07:27:52.432Z,3.83
2023-09-13T07:32:56.076Z,4.10
2023-09-13T07:38:00.952Z,4.43
2023-09-13T07:43:06.106Z,4.23
2023-09-13T07:48:11.794Z,3.93
2023-09-13T07:53:17.616Z,4.30
2023-09-13T07:58:21.097Z,4.03
2023-09-13T08:03:24.488Z,4.50
2023-09-13T08:08:29.389Z,4.13
2023-09-13T08:13:32.698Z,4.27
2023-09-13T08:18:36.090Z,4.30
2023-09-13T08:23:41.321Z,4.33
2023-09-13T08:28:45.153Z,3.80
2023-09-13T08:33:48.796Z,3.33
2023-09-13T08:38:53.492Z,3.30
2023-09-13T08:43:57.640Z,3.33
2023-09-13T08:49:01.496Z,3.50
2023-09-13T08:54:06.618Z,3.60
2023-09-13T08:59:10.159Z,3.50
2023-09-13T09:04:15.361Z,3.90
2023-09-13T09:09:21.938Z,3.63
2023-09-13T09:14:26.379Z,3.73
2023-09-13T09:19:30.533Z,4.00
2023-09-13T09:24:35.218Z,4.10
2023-09-13T09:29:40.730Z,4.13
2023-09-13T09:34:44.404Z,4.03
2023-09-13T09:39:50.029Z,3.87
2023-09-13T09:44:53.627Z,4.13
2023-09-13T09:49:57.071Z,4.43
2023-09-13T09:55:01.807Z,4.53
2023-09-13T10:00:09.392Z,4.67
2023-09-13T10:05:14.328Z,4.90
2023-09-13T10:10:28.650Z,4.30
2023-09-13T10:15:32.051Z,4.53
2023-09-13T10:20:36.235Z,4.13
2023-09-13T10:25:42.225Z,4.80
2023-09-13T10:30:48.333Z,4.93
2023-09-13T10:35:55.675Z,4.47
2023-09-13T10:41:04.316Z,5.28
2023-09-13T10:46:09.394Z,4.70
2023-09-13T10:51:13.421Z,4.80
2023-09-13T10:56:20.407Z,4.82
2023-09-13T11:01:24.601Z,5.32
2023-09-13T11:06:28.229Z,5.40
2023-09-13T11:11:33.316Z,4.82
2023-09-13T11:16:36.970Z,4.63
2023-09-13T11:21:51.569Z,5.05
2023-09-13T11:26:57.698Z,4.82
2023-09-13T11:32:02.914Z,4.97
2023-09-13T11:37:07.463Z,4.27
2023-09-13T11:42:25.713Z,4.18
2023-09-13T11:47:36.615Z,4.80
2023-09-13T11:52:59.239Z,4.80
2023-09-13T11:58:15.875Z,4.40
2023-09-13T12:03:22.996Z,4.28
2023-09-13T12:08:39.236Z,4.30
2023-09-13T12:18:51.675Z,3.50
2023-09-13T12:23:56.525Z,3.30
2023-09-13T12:29:01.890Z,3.60
2023-09-13T12:34:06.357Z,3.30
2023-09-13T12:39:16.651Z,3.28
2023-09-13T12:44:22.664Z,4.22
2023-09-13T12:49:26.209Z,3.95
2023-09-13T12:54:29.630Z,4.07
2023-09-13T12:59:45.318Z,3.65
2023-09-13T13:04:49.416Z,3.80
2023-09-13T13:09:53.146Z,3.80
2023-09-13T13:14:58.070Z,3.80
2023-09-13T13:20:24.154Z,4.18
2023-09-13T13:25:30.611Z,3.70
2023-09-13T13:30:37.934Z,3.72
2023-09-13T13:35:42.173Z,3.85
2023-09-13T13:40:45.489Z,4.30
2023-09-13T13:45:50.213Z,3.88
2023-09-13T13:50:53.603Z,4.50
2023-09-13T13:55:56.957Z,4.30
2023-09-13T14:01:04.800Z,4.72
2023-09-13T14:06:08.139Z,4.10
2023-09-13T14:11:11.454Z,4.47
2023-09-13T14:16:16.121Z,4.68
2023-09-13T14:21:19.470Z,4.60
2023-09-13T14:26:22.742Z,4.80
2023-09-13T14:31:27.513Z,4.80
2023-09-13T14:36:30.800Z,4.78
2023-09-13T14:41:34.148Z,4.53
2023-09-13T14:46:38.837Z,4.97
2023-09-13T14:51:42.314Z,4.68
2023-09-13T14:56:47.253Z,4.72
2023-09-13T15:01:52.256Z,4.40
2023-09-13T15:06:55.584Z,4.60
2023-09-13T15:11:59.045Z,4.60
2023-09-13T15:17:03.735Z,4.80
2023-09-13T15:22:07.075Z,5.00
2023-09-13T15:27:10.406Z,6.47
2023-09-13T15:32:18.972Z,7.23
2023-09-13T15:37:23.356Z,7.93
2023-09-13T15:42:29.305Z,7.40
2023-09-13T15:47:34.056Z,7.60
2023-09-13T15:52:37.438Z,7.73
2023-09-13T15:57:41.808Z,8.10
2023-09-13T16:02:46.959Z,7.80
2023-09-13T16:07:53.122Z,7.60
2023-09-13T16:12:56.620Z,7.13
2023-09-13T16:18:01.458Z,8.07
2023-09-13T16:23:05.711Z,8.83
2023-09-13T16:28:09.217Z,9.00
2023-09-13T16:33:14.190Z,7.63
2023-09-13T16:38:17.556Z,7.87
2023-09-13T16:43:21.249Z,8.63
2023-09-13T16:48:34.536Z,9.23
2023-09-13T16:53:38.490Z,8.83
2023-09-13T16:58:41.853Z,8.57
2023-09-13T17:03:46.855Z,8.67
2023-09-13T17:08:50.214Z,8.93
2023-09-13T17:13:53.789Z,8.63
2023-09-13T17:18:58.499Z,8.50
2023-09-13T17:24:01.858Z,8.70
2023-09-13T17:29:06.289Z,8.50
2023-09-13T17:34:11.100Z,7.97
2023-09-13T17:39:14.442Z,7.60
2023-09-13T17:44:34.207Z,8.53
2023-09-13T17:50:21.414Z,9.27
2023-09-13T17:55:27.763Z,8.20
2023-09-13T18:00:33.497Z,8.30
2023-09-13T18:05:37.344Z,8.10
2023-09-13T18:10:42.797Z,8.17
2023-09-13T18:16:01.739Z,7.93
2023-09-13T18:21:15.467Z,8.07
2023-09-13T18:26:20.682Z,8.50
2023-09-13T18:31:24.232Z,8.17
2023-09-13T18:36:27.797Z,7.83
2023-09-13T18:42:00.060Z,7.73
2023-09-13T18:47:37.197Z,7.30
2023-09-13T18:52:40.791Z,7.43
2023-09-13T18:57:53.065Z,8.33
2023-09-13T19:03:21.609Z,8.53
2023-09-13T19:08:47.175Z,9.77
2023-09-13T19:14:08.031Z,7.27
2023-09-13T19:19:15.999Z,6.97
2023-09-13T19:24:50.669Z,6.33
2023-09-13T19:30:06.020Z,6.10
2023-09-13T19:35:46.633Z,6.47
2023-09-13T19:41:14.981Z,6.57
2023-09-13T19:52:26.307Z,6.20
2023-09-13T19:57:32.935Z,6.47
2023-09-13T20:02:36.797Z,7.00
2023-09-13T20:07:40.359Z,7.00
2023-09-13T20:12:45.735Z,6.33
2023-09-13T20:17:49.669Z,6.40
2023-09-13T20:22:53.044Z,6.43
2023-09-13T20:28:11.731Z,6.67
2023-09-13T20:33:20.401Z,6.90
2023-09-13T20:38:41.238Z,6.37
2023-09-13T20:44:19.044Z,6.87
2023-09-13T20:49:28.517Z,6.87
2023-09-13T20:54:34.777Z,6.27
2023-09-13T20:59:40.360Z,5.93
2023-09-13T21:04:44.046Z,6.17
2023-09-13T21:09:47.518Z,6.53
2023-09-13T21:14:54.835Z,6.10
2023-09-13T21:19:58.256Z,6.60
2023-09-13T21:25:01.951Z,7.30
2023-09-13T21:30:08.707Z,6.73
2023-09-13T21:35:12.456Z,6.90
2023-09-13T21:40:16.835Z,6.70
2023-09-13T21:45:21.950Z,6.47
2023-09-13T21:50:25.406Z,7.10
2023-09-13T21:55:28.807Z,6.57
2023-09-13T22:00:34.230Z,6.70
2023-09-13T22:05:37.764Z,7.83
2023-09-13T22:10:41.985Z,7.00
2023-09-13T22:15:47.085Z,6.77
2023-09-13T22:20:52.012Z,7.23
2023-09-13T22:25:55.660Z,6.83
2023-09-13T22:31:02.177Z,6.63
2023-09-13T22:36:08.666Z,6.67
2023-09-13T22:41:12.337Z,7.40
2023-09-13T22:46:17.314Z,7.37
2023-09-13T22:51:20.812Z,6.50
2023-09-13T22:56:24.429Z,7.37
2023-09-13T23:01:29.419Z,7.33
2023-09-13T23:06:33.183Z,7.50
2023-09-13T23:11:36.594Z,7.67
2023-09-13T23:16:41.514Z,7.53
2023-09-13T23:21:46.404Z,7.13
2023-09-13T23:26:51.682Z,7.30
2023-09-13T23:31:56.596Z,7.20
2023-09-13T23:37:02.913Z,7.50
2023-09-13T23:42:06.524Z,7.57
2023-09-13T23:47:11.765Z,8.27
2023-09-13T23:52:15.441Z,7.93
2023-09-13T23:57:18.885Z,9.90
